sensor_id;sensor_type;location;lat;lon;timestamp;P1;durP1;ratioP1;P2;durP2;ratioP2
46308;SDS011;32037;50.820;6.494;2023-05-14T00:00:16;4.07;;;3.67;;
46308;SDS011;32037;50.820;6.494;2023-05-14T00:02:45;4.03;;;3.63;;
46308;SDS011;32037;50.820;6.494;2023-05-14T00:05:13;4.30;;;3.90;;
46308;SDS011;32037;50.820;6.494;2023-05-14T00:07:42;4.07;;;3.67;;
46308;SDS011;32037;50.820;6.494;2023-05-14T00:10:11;4.10;;;3.70;;
46308;SDS011;32037;50.820;6.494;2023-05-14T00:12:41;3.70;;;3.40;;
46308;SDS011;32037;50.820;6.494;2023-05-14T00:15:09;4.20;;;3.63;;
46308;SDS011;32037;50.820;6.494;2023-05-14T00:17:38;4.70;;;4.10;;
46308;SDS011;32037;50.820;6.494;2023-05-14T00:20:08;4.50;;;4.10;;
46308;SDS011;32037;50.820;6.494;2023-05-14T00:22:38;5.80;;;4.20;;
46308;SDS011;32037;50.820;6.494;2023-05-14T00:25:07;4.00;;;3.70;;
46308;SDS011;32037;50.820;6.494;2023-05-14T00:27:36;3.47;;;3.17;;
46308;SDS011;32037;50.820;6.494;2023-05-14T00:30:07;4.13;;;3.73;;
46308;SDS011;32037;50.820;6.494;2023-05-14T00:32:36;3.53;;;3.23;;
46308;SDS011;32037;50.820;6.494;2023-05-14T00:35:05;4.07;;;3.67;;
46308;SDS011;32037;50.820;6.494;2023-05-14T00:37:34;4.57;;;4.17;;
46308;SDS011;32037;50.820;6.494;2023-05-14T00:40:03;4.00;;;3.30;;
46308;SDS011;32037;50.820;6.494;2023-05-14T00:42:34;4.97;;;4.13;;
46308;SDS011;32037;50.820;6.494;2023-05-14T00:45:03;4.80;;;3.97;;
46308;SDS011;32037;50.820;6.494;2023-05-14T00:47:33;4.47;;;4.07;;
46308;SDS011;32037;50.820;6.494;2023-05-14T00:50:03;4.60;;;3.43;;
46308;SDS011;32037;50.820;6.494;2023-05-14T00:52:32;3.80;;;3.50;;
46308;SDS011;32037;50.820;6.494;2023-05-14T00:55:02;4.67;;;4.27;;
46308;SDS011;32037;50.820;6.494;2023-05-14T00:57:32;3.63;;;3.33;;
46308;SDS011;32037;50.820;6.494;2023-05-14T01:00:03;4.07;;;3.63;;
46308;SDS011;32037;50.820;6.494;2023-05-14T01:02:33;4.47;;;4.07;;
46308;SDS011;32037;50.820;6.494;2023-05-14T01:05:05;4.50;;;4.10;;
46308;SDS011;32037;50.820;6.494;2023-05-14T01:07:38;4.13;;;3.73;;
46308;SDS011;32037;50.820;6.494;2023-05-14T01:10:14;5.00;;;3.87;;
46308;SDS011;32037;50.820;6.494;2023-05-14T01:12:51;4.70;;;4.20;;
46308;SDS011;32037;50.820;6.494;2023-05-14T01:15:27;5.50;;;4.60;;
46308;SDS011;32037;50.820;6.494;2023-05-14T01:18:00;5.10;;;3.53;;
46308;SDS011;32037;50.820;6.494;2023-05-14T01:20:31;4.97;;;4.50;;
46308;SDS011;32037;50.820;6.494;2023-05-14T01:23:01;4.17;;;3.77;;
46308;SDS011;32037;50.820;6.494;2023-05-14T01:25:30;4.40;;;4.00;;
46308;SDS011;32037;50.820;6.494;2023-05-14T01:28:02;5.70;;;4.73;;
46308;SDS011;32037;50.820;6.494;2023-05-14T01:30:41;4.87;;;3.60;;
46308;SDS011;32037;50.820;6.494;2023-05-14T01:33:13;4.33;;;3.93;;
46308;SDS011;32037;50.820;6.494;2023-05-14T01:35:43;4.60;;;4.10;;
46308;SDS011;32037;50.820;6.494;2023-05-14T01:38:15;4.70;;;4.30;;
46308;SDS011;32037;50.820;6.494;2023-05-14T01:40:45;4.00;;;3.70;;
46308;SDS011;32037;50.820;6.494;2023-05-14T01:43:15;4.50;;;4.10;;
46308;SDS011;32037;50.820;6.494;2023-05-14T01:45:45;4.70;;;4.30;;
46308;SDS011;32037;50.820;6.494;2023-05-14T01:48:14;5.03;;;4.20;;
46308;SDS011;32037;50.820;6.494;2023-05-14T01:50:42;5.70;;;4.70;;
46308;SDS011;32037;50.820;6.494;2023-05-14T01:53:11;4.50;;;3.97;;
46308;SDS011;32037;50.820;6.494;2023-05-14T01:55:41;4.50;;;4.10;;
46308;SDS011;32037;50.820;6.494;2023-05-14T01:58:09;5.30;;;4.33;;
46308;SDS011;32037;50.820;6.494;2023-05-14T02:00:38;3.90;;;3.60;;
46308;SDS011;32037;50.820;6.494;2023-05-14T02:03:07;5.13;;;4.63;;
46308;SDS011;32037;50.820;6.494;2023-05-14T02:05:35;4.30;;;3.90;;
46308;SDS011;32037;50.820;6.494;2023-05-14T02:08:04;4.93;;;4.53;;
46308;SDS011;32037;50.820;6.494;2023-05-14T02:10:32;3.67;;;3.37;;
46308;SDS011;32037;50.820;6.494;2023-05-14T02:13:03;4.67;;;4.17;;
46308;SDS011;32037;50.820;6.494;2023-05-14T02:15:31;4.70;;;4.30;;
46308;SDS011;32037;50.820;6.494;2023-05-14T02:18:00;4.20;;;3.80;;
46308;SDS011;32037;50.820;6.494;2023-05-14T02:20:29;4.43;;;4.03;;
46308;SDS011;32037;50.820;6.494;2023-05-14T02:22:57;4.83;;;4.43;;
46308;SDS011;32037;50.820;6.494;2023-05-14T02:25:26;5.20;;;3.87;;
46308;SDS011;32037;50.820;6.494;2023-05-14T02:27:57;4.03;;;3.63;;
46308;SDS011;32037;50.820;6.494;2023-05-14T02:30:27;4.57;;;4.10;;
46308;SDS011;32037;50.820;6.494;2023-05-14T02:32:56;3.97;;;3.63;;
46308;SDS011;32037;50.820;6.494;2023-05-14T02:35:25;4.63;;;4.23;;
46308;SDS011;32037;50.820;6.494;2023-05-14T02:37:54;4.10;;;3.70;;
46308;SDS011;32037;50.820;6.494;2023-05-14T02:40:22;4.60;;;4.13;;
46308;SDS011;32037;50.820;6.494;2023-05-14T02:42:51;5.20;;;3.90;;
46308;SDS011;32037;50.820;6.494;2023-05-14T02:45:20;5.97;;;4.67;;
46308;SDS011;32037;50.820;6.494;2023-05-14T02:47:49;4.50;;;4.10;;
46308;SDS011;32037;50.820;6.494;2023-05-14T02:50:18;4.93;;;4.40;;
46308;SDS011;32037;50.820;6.494;2023-05-14T02:52:47;4.80;;;4.40;;
46308;SDS011;32037;50.820;6.494;2023-05-14T02:55:16;4.70;;;4.30;;
46308;SDS011;32037;50.820;6.494;2023-05-14T02:57:44;3.73;;;3.43;;
46308;SDS011;32037;50.820;6.494;2023-05-14T03:00:16;4.67;;;4.27;;
46308;SDS011;32037;50.820;6.494;2023-05-14T03:02:45;3.67;;;3.37;;
46308;SDS011;32037;50.820;6.494;2023-05-14T03:05:16;4.13;;;3.73;;
46308;SDS011;32037;50.820;6.494;2023-05-14T03:07:44;4.63;;;4.23;;
46308;SDS011;32037;50.820;6.494;2023-05-14T03:10:13;4.20;;;3.80;;
46308;SDS011;32037;50.820;6.494;2023-05-14T03:12:41;3.30;;;3.00;;
46308;SDS011;32037;50.820;6.494;2023-05-14T03:15:11;4.17;;;3.77;;
46308;SDS011;32037;50.820;6.494;2023-05-14T03:17:39;4.90;;;4.40;;
46308;SDS011;32037;50.820;6.494;2023-05-14T03:20:08;5.87;;;4.67;;
46308;SDS011;32037;50.820;6.494;2023-05-14T03:22:39;4.10;;;3.70;;
46308;SDS011;32037;50.820;6.494;2023-05-14T03:25:07;4.90;;;4.43;;
46308;SDS011;32037;50.820;6.494;2023-05-14T03:27:36;4.10;;;3.70;;
46308;SDS011;32037;50.820;6.494;2023-05-14T03:30:05;4.20;;;3.80;;
46308;SDS011;32037;50.820;6.494;2023-05-14T03:32:35;4.43;;;4.03;;
46308;SDS011;32037;50.820;6.494;2023-05-14T03:35:04;4.87;;;4.47;;
46308;SDS011;32037;50.820;6.494;2023-05-14T03:37:33;4.13;;;3.63;;
46308;SDS011;32037;50.820;6.494;2023-05-14T03:40:04;4.67;;;4.27;;
46308;SDS011;32037;50.820;6.494;2023-05-14T03:42:35;4.70;;;4.20;;
46308;SDS011;32037;50.820;6.494;2023-05-14T03:45:03;4.90;;;4.50;;
46308;SDS011;32037;50.820;6.494;2023-05-14T03:47:33;5.40;;;4.90;;
46308;SDS011;32037;50.820;6.494;2023-05-14T03:50:02;4.63;;;4.23;;
46308;SDS011;32037;50.820;6.494;2023-05-14T03:52:30;4.97;;;4.53;;
46308;SDS011;32037;50.820;6.494;2023-05-14T03:55:01;4.63;;;4.23;;
46308;SDS011;32037;50.820;6.494;2023-05-14T03:57:31;4.70;;;4.27;;
46308;SDS011;32037;50.820;6.494;2023-05-14T04:00:01;3.70;;;3.40;;
46308;SDS011;32037;50.820;6.494;2023-05-14T04:02:42;6.50;;;4.53;;
46308;SDS011;32037;50.820;6.494;2023-05-14T04:05:11;4.53;;;4.13;;
46308;SDS011;32037;50.820;6.494;2023-05-14T04:07:40;4.83;;;4.40;;
46308;SDS011;32037;50.820;6.494;2023-05-14T04:10:08;4.73;;;4.17;;
46308;SDS011;32037;50.820;6.494;2023-05-14T04:12:38;5.03;;;4.53;;
46308;SDS011;32037;50.820;6.494;2023-05-14T04:15:07;4.60;;;4.20;;
46308;SDS011;32037;50.820;6.494;2023-05-14T04:17:36;7.27;;;4.43;;
46308;SDS011;32037;50.820;6.494;2023-05-14T04:20:06;6.10;;;4.50;;
46308;SDS011;32037;50.820;6.494;2023-05-14T04:22:35;4.50;;;3.90;;
46308;SDS011;32037;50.820;6.494;2023-05-14T04:25:03;4.30;;;3.90;;
46308;SDS011;32037;50.820;6.494;2023-05-14T04:27:33;5.20;;;4.33;;
46308;SDS011;32037;50.820;6.494;2023-05-14T04:30:03;5.40;;;4.87;;
46308;SDS011;32037;50.820;6.494;2023-05-14T04:32:33;4.67;;;4.27;;
46308;SDS011;32037;50.820;6.494;2023-05-14T04:35:02;5.40;;;4.30;;
46308;SDS011;32037;50.820;6.494;2023-05-14T04:37:31;4.63;;;3.93;;
46308;SDS011;32037;50.820;6.494;2023-05-14T04:39:59;4.30;;;3.90;;
46308;SDS011;32037;50.820;6.494;2023-05-14T04:42:29;3.83;;;3.53;;
46308;SDS011;32037;50.820;6.494;2023-05-14T04:44:57;4.20;;;3.80;;
46308;SDS011;32037;50.820;6.494;2023-05-14T04:47:27;3.87;;;3.57;;
46308;SDS011;32037;50.820;6.494;2023-05-14T04:49:56;5.03;;;4.53;;
46308;SDS011;32037;50.820;6.494;2023-05-14T04:52:24;4.30;;;4.00;;
46308;SDS011;32037;50.820;6.494;2023-05-14T04:54:53;4.03;;;3.67;;
46308;SDS011;32037;50.820;6.494;2023-05-14T04:57:22;4.67;;;4.27;;
46308;SDS011;32037;50.820;6.494;2023-05-14T04:59:51;7.43;;;4.37;;
46308;SDS011;32037;50.820;6.494;2023-05-14T05:02:19;4.93;;;4.40;;
46308;SDS011;32037;50.820;6.494;2023-05-14T05:04:49;3.90;;;3.50;;
46308;SDS011;32037;50.820;6.494;2023-05-14T05:07:17;3.70;;;3.40;;
46308;SDS011;32037;50.820;6.494;2023-05-14T05:09:46;4.00;;;3.60;;
46308;SDS011;32037;50.820;6.494;2023-05-14T05:12:14;4.73;;;4.33;;
46308;SDS011;32037;50.820;6.494;2023-05-14T05:14:43;4.13;;;3.73;;
46308;SDS011;32037;50.820;6.494;2023-05-14T05:17:11;4.33;;;3.80;;
46308;SDS011;32037;50.820;6.494;2023-05-14T05:19:39;4.03;;;3.63;;
46308;SDS011;32037;50.820;6.494;2023-05-14T05:22:11;7.00;;;4.50;;
46308;SDS011;32037;50.820;6.494;2023-05-14T05:24:40;4.33;;;3.80;;
46308;SDS011;32037;50.820;6.494;2023-05-14T05:27:08;4.80;;;3.90;;
46308;SDS011;32037;50.820;6.494;2023-05-14T05:29:37;4.27;;;3.87;;
46308;SDS011;32037;50.820;6.494;2023-05-14T05:32:05;4.40;;;4.00;;
46308;SDS011;32037;50.820;6.494;2023-05-14T05:34:34;4.83;;;4.13;;
46308;SDS011;32037;50.820;6.494;2023-05-14T05:37:03;4.30;;;3.90;;
46308;SDS011;32037;50.820;6.494;2023-05-14T05:39:33;4.60;;;4.20;;
46308;SDS011;32037;50.820;6.494;2023-05-14T05:42:01;4.90;;;4.40;;
46308;SDS011;32037;50.820;6.494;2023-05-14T05:44:30;4.20;;;3.83;;
46308;SDS011;32037;50.820;6.494;2023-05-14T05:46:59;4.00;;;3.60;;
46308;SDS011;32037;50.820;6.494;2023-05-14T05:49:27;4.17;;;3.70;;
46308;SDS011;32037;50.820;6.494;2023-05-14T05:51:56;5.07;;;4.27;;
46308;SDS011;32037;50.820;6.494;2023-05-14T05:54:24;4.60;;;4.10;;
46308;SDS011;32037;50.820;6.494;2023-05-14T05:56:54;4.70;;;4.30;;
46308;SDS011;32037;50.820;6.494;2023-05-14T05:59:23;4.33;;;3.93;;
46308;SDS011;32037;50.820;6.494;2023-05-14T06:01:51;4.00;;;3.70;;
46308;SDS011;32037;50.820;6.494;2023-05-14T06:04:20;4.60;;;4.20;;
46308;SDS011;32037;50.820;6.494;2023-05-14T06:06:48;5.00;;;4.60;;
46308;SDS011;32037;50.820;6.494;2023-05-14T06:09:17;4.70;;;4.23;;
46308;SDS011;32037;50.820;6.494;2023-05-14T06:11:45;3.80;;;3.50;;
46308;SDS011;32037;50.820;6.494;2023-05-14T06:14:15;3.63;;;3.33;;
46308;SDS011;32037;50.820;6.494;2023-05-14T06:16:44;4.37;;;3.87;;
46308;SDS011;32037;50.820;6.494;2023-05-14T06:19:15;4.43;;;3.53;;
46308;SDS011;32037;50.820;6.494;2023-05-14T06:21:44;3.83;;;3.53;;
46308;SDS011;32037;50.820;6.494;2023-05-14T06:24:12;4.40;;;4.00;;
46308;SDS011;32037;50.820;6.494;2023-05-14T06:26:42;3.73;;;3.40;;
46308;SDS011;32037;50.820;6.494;2023-05-14T06:29:10;3.87;;;3.60;;
46308;SDS011;32037;50.820;6.494;2023-05-14T06:31:40;3.47;;;3.20;;
46308;SDS011;32037;50.820;6.494;2023-05-14T06:34:09;4.30;;;3.90;;
46308;SDS011;32037;50.820;6.494;2023-05-14T06:36:37;4.13;;;3.67;;
46308;SDS011;32037;50.820;6.494;2023-05-14T06:39:06;4.23;;;3.83;;
46308;SDS011;32037;50.820;6.494;2023-05-14T06:41:34;3.80;;;3.47;;
46308;SDS011;32037;50.820;6.494;2023-05-14T06:44:03;4.27;;;3.87;;
46308;SDS011;32037;50.820;6.494;2023-05-14T06:46:32;3.33;;;3.03;;
46308;SDS011;32037;50.820;6.494;2023-05-14T06:49:02;3.57;;;3.27;;
46308;SDS011;32037;50.820;6.494;2023-05-14T06:51:31;4.07;;;3.73;;
46308;SDS011;32037;50.820;6.494;2023-05-14T06:53:59;7.60;;;5.50;;
46308;SDS011;32037;50.820;6.494;2023-05-14T06:56:28;5.33;;;4.83;;
46308;SDS011;32037;50.820;6.494;2023-05-14T06:58:56;5.20;;;4.67;;
46308;SDS011;32037;50.820;6.494;2023-05-14T07:01:26;5.10;;;4.50;;
46308;SDS011;32037;50.820;6.494;2023-05-14T07:03:56;5.00;;;4.50;;
46308;SDS011;32037;50.820;6.494;2023-05-14T07:06:25;5.37;;;4.87;;
46308;SDS011;32037;50.820;6.494;2023-05-14T07:08:54;5.23;;;4.73;;
46308;SDS011;32037;50.820;6.494;2023-05-14T07:11:22;5.67;;;4.60;;
46308;SDS011;32037;50.820;6.494;2023-05-14T07:13:52;4.33;;;3.97;;
46308;SDS011;32037;50.820;6.494;2023-05-14T07:16:20;4.57;;;4.17;;
46308;SDS011;32037;50.820;6.494;2023-05-14T07:18:49;4.93;;;4.53;;
46308;SDS011;32037;50.820;6.494;2023-05-14T07:21:17;5.50;;;5.03;;
46308;SDS011;32037;50.820;6.494;2023-05-14T07:23:48;4.40;;;4.00;;
46308;SDS011;32037;50.820;6.494;2023-05-14T07:26:16;4.73;;;4.33;;
46308;SDS011;32037;50.820;6.494;2023-05-14T07:28:45;4.10;;;3.80;;
46308;SDS011;32037;50.820;6.494;2023-05-14T07:31:13;3.90;;;3.60;;
46308;SDS011;32037;50.820;6.494;2023-05-14T07:33:42;5.10;;;3.60;;
46308;SDS011;32037;50.820;6.494;2023-05-14T07:36:11;6.43;;;4.80;;
46308;SDS011;32037;50.820;6.494;2023-05-14T07:38:40;4.77;;;4.37;;
46308;SDS011;32037;50.820;6.494;2023-05-14T07:41:10;6.00;;;4.60;;
46308;SDS011;32037;50.820;6.494;2023-05-14T07:43:38;5.20;;;4.80;;
46308;SDS011;32037;50.820;6.494;2023-05-14T07:46:07;5.67;;;5.17;;
46308;SDS011;32037;50.820;6.494;2023-05-14T07:48:35;4.67;;;4.20;;
46308;SDS011;32037;50.820;6.494;2023-05-14T07:51:04;5.10;;;4.70;;
46308;SDS011;32037;50.820;6.494;2023-05-14T07:53:33;5.43;;;4.80;;
46308;SDS011;32037;50.820;6.494;2023-05-14T07:56:01;4.60;;;4.20;;
46308;SDS011;32037;50.820;6.494;2023-05-14T07:58:31;5.20;;;4.47;;
46308;SDS011;32037;50.820;6.494;2023-05-14T08:01:00;4.47;;;4.07;;
46308;SDS011;32037;50.820;6.494;2023-05-14T08:03:35;4.83;;;4.40;;
46308;SDS011;32037;50.820;6.494;2023-05-14T08:06:05;4.00;;;3.70;;
46308;SDS011;32037;50.820;6.494;2023-05-14T08:08:34;5.70;;;5.10;;
46308;SDS011;32037;50.820;6.494;2023-05-14T08:11:03;4.80;;;4.40;;
46308;SDS011;32037;50.820;6.494;2023-05-14T08:13:34;4.83;;;4.43;;
46308;SDS011;32037;50.820;6.494;2023-05-14T08:16:04;4.90;;;4.40;;
46308;SDS011;32037;50.820;6.494;2023-05-14T08:18:33;5.30;;;4.50;;
46308;SDS011;32037;50.820;6.494;2023-05-14T08:21:02;4.80;;;4.10;;
46308;SDS011;32037;50.820;6.494;2023-05-14T08:23:31;3.93;;;3.63;;
46308;SDS011;32037;50.820;6.494;2023-05-14T08:26:00;5.03;;;4.53;;
46308;SDS011;32037;50.820;6.494;2023-05-14T08:28:29;5.10;;;4.70;;
46308;SDS011;32037;50.820;6.494;2023-05-14T08:30:58;4.70;;;4.30;;
46308;SDS011;32037;50.820;6.494;2023-05-14T08:33:27;4.80;;;4.40;;
46308;SDS011;32037;50.820;6.494;2023-05-14T08:35:55;4.70;;;4.30;;
46308;SDS011;32037;50.820;6.494;2023-05-14T08:38:26;4.43;;;4.03;;
46308;SDS011;32037;50.820;6.494;2023-05-14T08:40:55;5.77;;;5.27;;
46308;SDS011;32037;50.820;6.494;2023-05-14T08:43:24;5.07;;;4.67;;
46308;SDS011;32037;50.820;6.494;2023-05-14T08:45:57;5.10;;;4.60;;
46308;SDS011;32037;50.820;6.494;2023-05-14T08:48:31;5.30;;;4.73;;
46308;SDS011;32037;50.820;6.494;2023-05-14T08:51:00;5.47;;;4.97;;
46308;SDS011;32037;50.820;6.494;2023-05-14T08:53:29;4.70;;;4.30;;
46308;SDS011;32037;50.820;6.494;2023-05-14T08:55:58;4.63;;;4.23;;
46308;SDS011;32037;50.820;6.494;2023-05-14T08:58:28;4.93;;;4.17;;
46308;SDS011;32037;50.820;6.494;2023-05-14T09:01:00;5.10;;;4.70;;
46308;SDS011;32037;50.820;6.494;2023-05-14T09:03:29;5.47;;;4.97;;
46308;SDS011;32037;50.820;6.494;2023-05-14T09:05:59;6.03;;;4.40;;
46308;SDS011;32037;50.820;6.494;2023-05-14T09:08:32;4.33;;;3.93;;
46308;SDS011;32037;50.820;6.494;2023-05-14T09:11:02;4.70;;;4.30;;
46308;SDS011;32037;50.820;6.494;2023-05-14T09:13:31;5.43;;;4.90;;
46308;SDS011;32037;50.820;6.494;2023-05-14T09:16:05;5.23;;;4.70;;
46308;SDS011;32037;50.820;6.494;2023-05-14T09:18:37;5.37;;;4.97;;
46308;SDS011;32037;50.820;6.494;2023-05-14T09:21:09;5.30;;;4.90;;
46308;SDS011;32037;50.820;6.494;2023-05-14T09:23:40;4.93;;;4.53;;
46308;SDS011;32037;50.820;6.494;2023-05-14T09:26:10;5.17;;;4.67;;
46308;SDS011;32037;50.820;6.494;2023-05-14T09:28:38;5.37;;;4.87;;
46308;SDS011;32037;50.820;6.494;2023-05-14T09:31:10;4.93;;;4.53;;
46308;SDS011;32037;50.820;6.494;2023-05-14T09:33:39;5.40;;;4.90;;
46308;SDS011;32037;50.820;6.494;2023-05-14T09:36:07;5.50;;;5.00;;
46308;SDS011;32037;50.820;6.494;2023-05-14T09:38:36;7.07;;;5.13;;
46308;SDS011;32037;50.820;6.494;2023-05-14T09:41:04;9.83;;;8.67;;
46308;SDS011;32037;50.820;6.494;2023-05-14T09:43:33;6.77;;;6.17;;
46308;SDS011;32037;50.820;6.494;2023-05-14T09:46:01;8.63;;;7.83;;
46308;SDS011;32037;50.820;6.494;2023-05-14T09:48:32;8.20;;;7.50;;
46308;SDS011;32037;50.820;6.494;2023-05-14T09:51:01;7.70;;;7.00;;
46308;SDS011;32037;50.820;6.494;2023-05-14T09:53:31;8.00;;;7.40;;
46308;SDS011;32037;50.820;6.494;2023-05-14T09:56:02;7.53;;;6.93;;
46308;SDS011;32037;50.820;6.494;2023-05-14T09:58:32;7.33;;;6.70;;
46308;SDS011;32037;50.820;6.494;2023-05-14T10:01:10;8.20;;;7.50;;
46308;SDS011;32037;50.820;6.494;2023-05-14T10:03:40;7.20;;;6.60;;
46308;SDS011;32037;50.820;6.494;2023-05-14T10:06:13;10.50;;;7.10;;
46308;SDS011;32037;50.820;6.494;2023-05-14T10:08:44;7.10;;;6.50;;
46308;SDS011;32037;50.820;6.494;2023-05-14T10:11:17;9.20;;;8.33;;
46308;SDS011;32037;50.820;6.494;2023-05-14T10:13:54;8.00;;;6.90;;
46308;SDS011;32037;50.820;6.494;2023-05-14T10:16:30;8.30;;;7.40;;
46308;SDS011;32037;50.820;6.494;2023-05-14T10:19:04;7.53;;;6.83;;
46308;SDS011;32037;50.820;6.494;2023-05-14T10:21:36;8.70;;;7.90;;
46308;SDS011;32037;50.820;6.494;2023-05-14T10:24:07;8.73;;;7.93;;
46308;SDS011;32037;50.820;6.494;2023-05-14T10:26:37;7.87;;;7.17;;
46308;SDS011;32037;50.820;6.494;2023-05-14T10:29:08;7.77;;;7.07;;
46308;SDS011;32037;50.820;6.494;2023-05-14T10:31:47;8.40;;;7.60;;
46308;SDS011;32037;50.820;6.494;2023-05-14T10:34:34;10.03;;;8.83;;
46308;SDS011;32037;50.820;6.494;2023-05-14T10:37:07;9.33;;;8.37;;
46308;SDS011;32037;50.820;6.494;2023-05-14T10:39:40;13.60;;;10.33;;
46308;SDS011;32037;50.820;6.494;2023-05-14T10:42:11;9.00;;;8.20;;
46308;SDS011;32037;50.820;6.494;2023-05-14T10:44:48;8.37;;;7.57;;
46308;SDS011;32037;50.820;6.494;2023-05-14T10:47:21;8.30;;;7.50;;
46308;SDS011;32037;50.820;6.494;2023-05-14T10:49:52;8.03;;;7.33;;
46308;SDS011;32037;50.820;6.494;2023-05-14T10:52:22;10.03;;;9.13;;
46308;SDS011;32037;50.820;6.494;2023-05-14T10:54:52;10.27;;;9.37;;
46308;SDS011;32037;50.820;6.494;2023-05-14T10:57:28;11.60;;;10.50;;
46308;SDS011;32037;50.820;6.494;2023-05-14T10:59:58;13.10;;;11.80;;
46308;SDS011;32037;50.820;6.494;2023-05-14T11:02:30;12.63;;;11.50;;
46308;SDS011;32037;50.820;6.494;2023-05-14T11:05:03;12.17;;;11.07;;
46308;SDS011;32037;50.820;6.494;2023-05-14T11:07:37;11.50;;;10.50;;
46308;SDS011;32037;50.820;6.494;2023-05-14T11:10:10;11.57;;;10.57;;
46308;SDS011;32037;50.820;6.494;2023-05-14T11:12:40;12.47;;;11.27;;
46308;SDS011;32037;50.820;6.494;2023-05-14T11:15:10;12.60;;;11.50;;
46308;SDS011;32037;50.820;6.494;2023-05-14T11:17:40;11.60;;;10.20;;
46308;SDS011;32037;50.820;6.494;2023-05-14T11:20:11;12.17;;;11.07;;
46308;SDS011;32037;50.820;6.494;2023-05-14T11:22:42;11.70;;;10.70;;
46308;SDS011;32037;50.820;6.494;2023-05-14T11:25:13;12.77;;;10.67;;
46308;SDS011;32037;50.820;6.494;2023-05-14T11:27:58;9.60;;;8.80;;
46308;SDS011;32037;50.820;6.494;2023-05-14T11:30:26;11.20;;;10.00;;
46308;SDS011;32037;50.820;6.494;2023-05-14T11:32:58;11.13;;;10.17;;
46308;SDS011;32037;50.820;6.494;2023-05-14T11:35:29;13.83;;;12.47;;
46308;SDS011;32037;50.820;6.494;2023-05-14T11:37:58;16.07;;;14.47;;
46308;SDS011;32037;50.820;6.494;2023-05-14T11:40:28;14.20;;;12.70;;
46308;SDS011;32037;50.820;6.494;2023-05-14T11:42:57;13.03;;;11.80;;
46308;SDS011;32037;50.820;6.494;2023-05-14T11:45:26;12.53;;;11.43;;
46308;SDS011;32037;50.820;6.494;2023-05-14T11:47:55;13.73;;;12.43;;
46308;SDS011;32037;50.820;6.494;2023-05-14T11:50:24;13.77;;;12.47;;
46308;SDS011;32037;50.820;6.494;2023-05-14T11:53:03;11.30;;;10.30;;
46308;SDS011;32037;50.820;6.494;2023-05-14T11:55:33;12.23;;;11.13;;
46308;SDS011;32037;50.820;6.494;2023-05-14T11:58:02;11.23;;;10.13;;
46308;SDS011;32037;50.820;6.494;2023-05-14T12:00:34;11.10;;;10.10;;
46308;SDS011;32037;50.820;6.494;2023-05-14T12:03:04;12.77;;;11.67;;
46308;SDS011;32037;50.820;6.494;2023-05-14T12:05:36;11.33;;;10.40;;
46308;SDS011;32037;50.820;6.494;2023-05-14T12:08:19;12.00;;;10.90;;
46308;SDS011;32037;50.820;6.494;2023-05-14T12:10:48;13.30;;;10.10;;
46308;SDS011;32037;50.820;6.494;2023-05-14T12:13:17;11.07;;;10.07;;
46308;SDS011;32037;50.820;6.494;2023-05-14T12:15:53;11.10;;;10.20;;
46308;SDS011;32037;50.820;6.494;2023-05-14T12:18:24;12.17;;;11.07;;
46308;SDS011;32037;50.820;6.494;2023-05-14T12:21:02;10.10;;;9.20;;
46308;SDS011;32037;50.820;6.494;2023-05-14T12:23:36;11.30;;;10.20;;
46308;SDS011;32037;50.820;6.494;2023-05-14T12:26:07;11.33;;;10.23;;
46308;SDS011;32037;50.820;6.494;2023-05-14T12:28:55;12.10;;;11.10;;
46308;SDS011;32037;50.820;6.494;2023-05-14T12:31:27;10.13;;;9.33;;
46308;SDS011;32037;50.820;6.494;2023-05-14T12:33:57;9.37;;;8.57;;
46308;SDS011;32037;50.820;6.494;2023-05-14T12:36:25;10.37;;;9.37;;
46308;SDS011;32037;50.820;6.494;2023-05-14T12:39:00;9.20;;;8.40;;
46308;SDS011;32037;50.820;6.494;2023-05-14T12:41:29;10.90;;;10.00;;
46308;SDS011;32037;50.820;6.494;2023-05-14T12:43:59;9.17;;;8.37;;
46308;SDS011;32037;50.820;6.494;2023-05-14T12:46:29;9.57;;;8.77;;
46308;SDS011;32037;50.820;6.494;2023-05-14T12:49:00;10.00;;;9.13;;
46308;SDS011;32037;50.820;6.494;2023-05-14T12:51:29;10.10;;;9.20;;
46308;SDS011;32037;50.820;6.494;2023-05-14T12:54:03;10.63;;;9.63;;
46308;SDS011;32037;50.820;6.494;2023-05-14T12:56:32;9.40;;;8.60;;
46308;SDS011;32037;50.820;6.494;2023-05-14T12:59:03;9.73;;;8.93;;
46308;SDS011;32037;50.820;6.494;2023-05-14T13:01:31;9.93;;;9.03;;
46308;SDS011;32037;50.820;6.494;2023-05-14T13:04:00;9.97;;;9.07;;
46308;SDS011;32037;50.820;6.494;2023-05-14T13:06:28;8.87;;;8.03;;
46308;SDS011;32037;50.820;6.494;2023-05-14T13:08:57;8.50;;;7.80;;
46308;SDS011;32037;50.820;6.494;2023-05-14T13:11:29;9.50;;;8.63;;
46308;SDS011;32037;50.820;6.494;2023-05-14T13:14:00;10.67;;;9.77;;
46308;SDS011;32037;50.820;6.494;2023-05-14T13:16:29;9.93;;;9.10;;
46308;SDS011;32037;50.820;6.494;2023-05-14T13:18:57;9.67;;;8.87;;
46308;SDS011;32037;50.820;6.494;2023-05-14T13:21:26;10.30;;;9.20;;
46308;SDS011;32037;50.820;6.494;2023-05-14T13:23:55;9.57;;;8.77;;
46308;SDS011;32037;50.820;6.494;2023-05-14T13:26:24;9.27;;;8.50;;
46308;SDS011;32037;50.820;6.494;2023-05-14T13:28:55;10.20;;;9.20;;
46308;SDS011;32037;50.820;6.494;2023-05-14T13:31:24;10.93;;;10.03;;
46308;SDS011;32037;50.820;6.494;2023-05-14T13:33:54;11.30;;;10.30;;
46308;SDS011;32037;50.820;6.494;2023-05-14T13:36:24;15.50;;;11.63;;
46308;SDS011;32037;50.820;6.494;2023-05-14T13:38:53;10.30;;;9.40;;
46308;SDS011;32037;50.820;6.494;2023-05-14T13:41:21;9.77;;;8.97;;
46308;SDS011;32037;50.820;6.494;2023-05-14T13:43:50;12.03;;;9.20;;
46308;SDS011;32037;50.820;6.494;2023-05-14T13:46:21;10.80;;;8.30;;
46308;SDS011;32037;50.820;6.494;2023-05-14T13:48:50;8.93;;;8.23;;
46308;SDS011;32037;50.820;6.494;2023-05-14T13:51:20;14.20;;;9.57;;
46308;SDS011;32037;50.820;6.494;2023-05-14T13:53:49;10.23;;;9.27;;
46308;SDS011;32037;50.820;6.494;2023-05-14T13:56:19;9.43;;;8.67;;
46308;SDS011;32037;50.820;6.494;2023-05-14T13:58:48;9.83;;;9.03;;
46308;SDS011;32037;50.820;6.494;2023-05-14T14:01:17;10.40;;;9.50;;
46308;SDS011;32037;50.820;6.494;2023-05-14T14:03:57;8.93;;;8.07;;
46308;SDS011;32037;50.820;6.494;2023-05-14T14:06:29;10.07;;;8.30;;
46308;SDS011;32037;50.820;6.494;2023-05-14T14:08:58;9.30;;;8.50;;
46308;SDS011;32037;50.820;6.494;2023-05-14T14:11:27;9.10;;;8.20;;
46308;SDS011;32037;50.820;6.494;2023-05-14T14:13:56;9.40;;;8.27;;
46308;SDS011;32037;50.820;6.494;2023-05-14T14:16:25;8.60;;;7.80;;
46308;SDS011;32037;50.820;6.494;2023-05-14T14:18:56;10.20;;;9.17;;
46308;SDS011;32037;50.820;6.494;2023-05-14T14:21:25;8.90;;;8.00;;
46308;SDS011;32037;50.820;6.494;2023-05-14T14:23:54;8.90;;;8.20;;
46308;SDS011;32037;50.820;6.494;2023-05-14T14:26:24;8.80;;;8.00;;
46308;SDS011;32037;50.820;6.494;2023-05-14T14:28:53;9.07;;;8.27;;
46308;SDS011;32037;50.820;6.494;2023-05-14T14:31:23;12.70;;;9.30;;
46308;SDS011;32037;50.820;6.494;2023-05-14T14:33:53;8.90;;;7.60;;
46308;SDS011;32037;50.820;6.494;2023-05-14T14:36:23;9.10;;;8.30;;
46308;SDS011;32037;50.820;6.494;2023-05-14T14:38:52;9.00;;;7.60;;
46308;SDS011;32037;50.820;6.494;2023-05-14T14:41:21;8.47;;;7.30;;
46308;SDS011;32037;50.820;6.494;2023-05-14T14:43:50;6.90;;;6.30;;
46308;SDS011;32037;50.820;6.494;2023-05-14T14:46:31;7.03;;;6.37;;
46308;SDS011;32037;50.820;6.494;2023-05-14T14:49:20;6.00;;;5.33;;
46308;SDS011;32037;50.820;6.494;2023-05-14T14:52:27;9.90;;;6.13;;
46308;SDS011;32037;50.820;6.494;2023-05-14T14:55:38;7.40;;;6.70;;
46308;SDS011;32037;50.820;6.494;2023-05-14T14:58:27;6.23;;;5.20;;
46308;SDS011;32037;50.820;6.494;2023-05-14T15:01:14;5.73;;;5.23;;